• Join FlightAware (Why Join?)
  • Login
  • US Flag 
11:53PM EDT


 

Airport Tracker/Info


-or-


 

Live Flight TrackerFlight Track Log ✈ UAL582 ✈ 02-Mar-2014 ✈ CYYZ - KORD

Flight Track Log - Related Links

Times and Time Zones

All times are in EST time to prevent confusion due to time zone crossing. See the UAL582 flight status page for this flight to view local times or setup timezone preferences in your user account.

Time Position Orientation Groundspeed Altitude Reporting Facility
EST Latitude Longitude Course Direction KTS MPH feet Rate Location/Type
05:25PM 43.6500 -79.6833 224° Southwest 170 196 2,700  Level Toronto Center
05:26PM 43.6000 -79.7500 224° Southwest 230 265 5,200 2,100 Climbing Toronto Center
05:27PM 43.6000 -79.8333 270° West 250 288 7,000 900 Climbing Toronto Center
05:28PM 43.6167 -79.9333 283° West 250 288 7,000 1,020 Level Toronto Center
05:29PM 43.6333 -80.0167 285° West 250 288 9,100 2,880 Climbing Toronto Center
05:30PM 43.6500 -80.1167 283° West 230 265 12,800 3,000 Climbing Toronto Center
05:31PM 43.6500 -80.2167 270° West 260 299 15,200 2,460 Climbing Toronto Center
05:32PM 43.6333 -80.3167 257° West 280 322 17,800 2,520 Climbing Toronto Center
05:33PM 43.6167 -80.4167 257° West 290 334 20,300 2,520 Climbing Toronto Center
05:34PM 43.6000 -80.5333 259° West 290 334 22,900 2,100 Climbing Toronto Center
05:35PM 43.6000 -80.6500 270° West 290 334 24,500 1,980 Climbing Toronto Center
05:36PM 43.6000 -80.7333 270° West 300 345 26,900 2,160 Climbing Toronto Center
05:37PM 43.6000 -80.8500 270° West 280 322 28,900 1,740 Climbing Toronto Center
05:38PM 43.6000 -80.9667 270° West 290 334 30,400 1,440 Climbing Toronto Center
05:39PM 43.5833 -81.0833 259° West 290 334 31,800 780 Climbing Toronto Center
05:40PM 43.5667 -81.1667 255° West 290 334 32,000 60 Climbing Toronto Center
05:41PM 43.5333 -81.2833 249° West 290 334 32,000  Level Toronto Center
05:42PM 43.5167 -81.4000 259° West 290 334 32,000  Level Toronto Center
05:43PM 43.5000 -81.5167 259° West 290 334 32,000  Level Toronto Center
05:44PM 43.4833 -81.6167 257° West 290 334 32,000  Level Toronto Center
05:45PM 43.4667 -81.7167 257° West 290 334 32,000  Level Toronto Center
05:46PM 43.4333 -81.8167 245° Southwest 290 334 32,000  Level Toronto Center
05:47PM 43.4000 -81.9333 249° West 290 334 32,000  Level Toronto Center
05:48PM 43.3833 -82.0500 259° West 290 334 32,000  Level Toronto Center
05:49PM 43.3667 -82.1333 255° West 290 334 32,000  Level Toronto Center
05:50PM 43.3333 -82.2500 249° West 290 334 32,000  Level Toronto Center
05:51PM 43.3167 -82.3667 259° West 290 334 32,000  Level Toronto Center
05:52PM 43.3000 -82.4667 257° West 300 345 32,000  Level Toronto Center
05:53PM 43.2833 -82.5667 257° West 290 334 32,000  Level Toronto Center
05:54PM 43.2500 -82.6833 249° West 290 334 32,000  Level Toronto Center
05:55PM 43.2167 -82.7833 245° Southwest 290 334 32,000  Level Toronto Center
05:56PM 43.1833 -82.8833 245° Southwest 290 334 32,000  Level Toronto Center
05:57PM 43.1667 -83.0000 259° West 300 345 32,000  Level Toronto Center
05:58PM 43.1333 -83.1000 245° Southwest 300 345 32,000  Level Toronto Center
05:59PM 43.1000 -83.2167 249° West 300 345 32,000  Level Toronto Center
06:00PM 43.0667 -83.3000 241° Southwest 300 345 32,000  Level Toronto Center
06:00PM 43.0758 -83.3631 281° West 296 341 32,000  Level Cleveland Center
06:01PM 43.0469 -83.4675 249° West 295 339 32,000  Level Cleveland Center
06:02PM 43.0164 -83.5703 248° West 295 339 32,000  Level Cleveland Center
06:03PM 42.9811 -83.6953 249° West 295 339 32,000  Level Cleveland Center
06:05PM 42.9608 -83.8011 255° West 294 338 32,000  Level Cleveland Center
06:06PM 42.9508 -83.9117 263° West 294 338 32,000  Level Cleveland Center
06:07PM 42.9397 -84.0219 262° West 295 339 32,000  Level Cleveland Center
06:08PM 42.9294 -84.1325 263° West 295 339 32,000  Level Cleveland Center
06:09PM 42.9164 -84.2647 262° West 295 339 32,000  Level Cleveland Center
06:10PM 42.9042 -84.3775 262° West 297 342 32,000  Level Cleveland Center
06:11PM 42.8931 -84.4875 262° West 297 342 32,000  Level Chicago Center
06:12PM 42.8825 -84.5992 263° West 297 342 32,000  Level Chicago Center
06:13PM 42.8706 -84.7111 262° West 298 343 32,000  Level Chicago Center
06:14PM 42.8597 -84.8222 262° West 298 343 32,000  Level Chicago Center
06:15PM 42.8472 -84.9344 261° West 300 345 32,000  Level Chicago Center
06:16PM 42.8353 -85.0464 262° West 301 346 32,000 -180 Level Chicago Center
06:17PM 42.8233 -85.1614 262° West 304 350 31,700 -720 Descending Chicago Center
06:18PM 42.8075 -85.3075 262° West 325 374 30,600 -1,020 Descending Chicago Center
06:19PM 42.7928 -85.4347 261° West 336 387 29,600 -1,080 Descending Chicago Center
06:20PM 42.7758 -85.5586 259° West 335 386 28,500 -1,260 Descending Chicago Center
06:21PM 42.7536 -85.6783 256° West 329 379 27,100 -1,440 Descending Chicago Center
06:22PM 42.7317 -85.7989 256° West 326 375 25,600 -1,440 Descending Chicago Center
06:23PM 42.7100 -85.9189 256° West 326 375 24,200 -1,320 Descending Chicago Center
06:24PM 42.6881 -86.0406 256° West 328 377 22,900 -1,140 Descending Chicago Center
06:25PM 42.6661 -86.1600 256° West 326 375 21,900 -1,440 Descending Chicago Center
06:26PM 42.6406 -86.2989 256° West 319 367 20,000 -960 Descending Chicago Center
06:27PM 42.6183 -86.4133 255° West 315 362 20,000  Level Chicago Center
06:28PM 42.5964 -86.5294 256° West 316 364 20,000 -960 Level Chicago Center
06:29PM 42.5742 -86.6464 256° West 319 367 18,100 -1,800 Descending Chicago Center
06:30PM 42.5517 -86.7611 255° West 316 364 16,300 -1,920 Descending Chicago Center
06:31PM 42.5208 -86.8708 249° West 314 361 14,200 -1,980 Descending Chicago Center
06:32PM 42.4908 -86.9808 250° West 313 360 12,300 -2,040 Descending Chicago Center
06:33PM 42.4553 -87.1083 249° West 302 348 10,100 -1,260 Descending Chicago Center
06:34PM 42.4289 -87.2039 250° West 274 315 9,700 -540 Descending Chicago Center
06:35PM 42.3775 -87.2636 221° Southwest 281 323 9,000 -780 Descending Chicago Center
06:36PM 42.2844 -87.2650 181° South 301 346 8,200 -840 Descending Chicago Center
06:37PM 42.2117 -87.2936 196° South 271 312 7,300 -600 Descending Chicago Center
06:38PM 42.1431 -87.3553 214° Southwest 274 315 7,000 -540 Descending Chicago Center
06:40PM 42.0789 -87.4119 213° Southwest 275 316 6,300 -540 Descending Chicago Center
06:41PM 42.0233 -87.4803 222° Southwest 275 316 6,000 -300 Descending Chicago Center
06:42PM 41.9883 -87.5767 244° Southwest 269 310 5,800 -720 Descending Chicago Center
06:43PM 41.9828 -87.6681 265° West 248 285 4,600 -1,380 Descending Chicago Center
06:44PM 41.9828 -87.7561 270° West 223 257 3,000 -1,320 Descending Chicago Center
06:45PM 41.9828 -87.8181 270° West 166 191 1,900 -1,020 Descending Chicago Center
06:46PM 41.9831 -87.8700 270° West 133 153 1,000 -540 Descending Chicago Center
06:47PM 41.9817 -87.9108 267° West 127 146 800 -240 Descending Chicago Center